sensor_id;sensor_type;location;lat;lon;timestamp;P1;durP1;ratioP1;P2;durP2;ratioP2
51194;SDS011;37259;49.972;19.850;2023-02-01T00:00:54;5.4;;;3;;
51194;SDS011;37259;49.972;19.850;2023-02-01T00:01:54;5.4;;;3;;
51194;SDS011;37259;49.972;19.850;2023-02-01T00:02:54;5.4;;;3;;
51194;SDS011;37259;49.972;19.850;2023-02-01T00:03:54;5.4;;;3;;
51194;SDS011;37259;49.972;19.850;2023-02-01T00:04:54;5.4;;;3;;
51194;SDS011;37259;49.972;19.850;2023-02-01T00:05:55;5.4;;;3;;
51194;SDS011;37259;49.972;19.850;2023-02-01T00:06:54;5.4;;;3;;
51194;SDS011;37259;49.972;19.850;2023-02-01T00:07:54;5.4;;;3;;
51194;SDS011;37259;49.972;19.850;2023-02-01T00:08:54;5.4;;;3;;
51194;SDS011;37259;49.972;19.850;2023-02-01T00:09:54;5.4;;;3;;
51194;SDS011;37259;49.972;19.850;2023-02-01T00:10:58;5.4;;;3;;
51194;SDS011;37259;49.972;19.850;2023-02-01T00:11:54;5.4;;;3;;
51194;SDS011;37259;49.972;19.850;2023-02-01T00:12:54;5.4;;;3;;
51194;SDS011;37259;49.972;19.850;2023-02-01T00:13:54;5.4;;;3;;
51194;SDS011;37259;49.972;19.850;2023-02-01T00:14:54;5.4;;;3;;
51194;SDS011;37259;49.972;19.850;2023-02-01T00:15:54;4.6;;;2.4;;
51194;SDS011;37259;49.972;19.850;2023-02-01T00:16:54;4.6;;;2.4;;
51194;SDS011;37259;49.972;19.850;2023-02-01T00:17:54;4.6;;;2.4;;
51194;SDS011;37259;49.972;19.850;2023-02-01T00:18:56;4.6;;;2.4;;
51194;SDS011;37259;49.972;19.850;2023-02-01T00:19:54;4.6;;;2.4;;
51194;SDS011;37259;49.972;19.850;2023-02-01T00:20:54;4.6;;;2.4;;
51194;SDS011;37259;49.972;19.850;2023-02-01T00:21:54;4.6;;;2.4;;
51194;SDS011;37259;49.972;19.850;2023-02-01T00:22:54;4.6;;;2.4;;
51194;SDS011;37259;49.972;19.850;2023-02-01T00:23:54;4.6;;;2.4;;
51194;SDS011;37259;49.972;19.850;2023-02-01T00:24:54;4.6;;;2.4;;
51194;SDS011;37259;49.972;19.850;2023-02-01T00:25:54;4.6;;;2.4;;
51194;SDS011;37259;49.972;19.850;2023-02-01T00:26:54;4.6;;;2.4;;
51194;SDS011;37259;49.972;19.850;2023-02-01T00:27:54;4.6;;;2.4;;
51194;SDS011;37259;49.972;19.850;2023-02-01T00:28:54;4.6;;;2.4;;
51194;SDS011;37259;49.972;19.850;2023-02-01T00:29:54;4.6;;;2.4;;
51194;SDS011;37259;49.972;19.850;2023-02-01T00:30:55;4.6;;;2.4;;
51194;SDS011;37259;49.972;19.850;2023-02-01T00:31:54;4.6;;;2.4;;
51194;SDS011;37259;49.972;19.850;2023-02-01T00:32:54;4.6;;;2.4;;
51194;SDS011;37259;49.972;19.850;2023-02-01T00:33:54;4.6;;;2.4;;
51194;SDS011;37259;49.972;19.850;2023-02-01T00:34:54;4.6;;;2.4;;
51194;SDS011;37259;49.972;19.850;2023-02-01T00:35:55;4.6;;;2.4;;
51194;SDS011;37259;49.972;19.850;2023-02-01T00:36:54;4.6;;;2.4;;
51194;SDS011;37259;49.972;19.850;2023-02-01T00:37:54;4.6;;;2.4;;
51194;SDS011;37259;49.972;19.850;2023-02-01T00:38:54;4.6;;;2.4;;
51194;SDS011;37259;49.972;19.850;2023-02-01T00:39:54;4.6;;;2.4;;
51194;SDS011;37259;49.972;19.850;2023-02-01T00:40:54;4.6;;;2.4;;
51194;SDS011;37259;49.972;19.850;2023-02-01T00:41:54;4.6;;;2.4;;
51194;SDS011;37259;49.972;19.850;2023-02-01T00:42:54;4.6;;;2.4;;
51194;SDS011;37259;49.972;19.850;2023-02-01T00:43:54;4.6;;;2.4;;
51194;SDS011;37259;49.972;19.850;2023-02-01T00:44:54;4.6;;;2.4;;
51194;SDS011;37259;49.972;19.850;2023-02-01T00:45:54;4.3;;;2.2;;
51194;SDS011;37259;49.972;19.850;2023-02-01T00:46:54;4.3;;;2.2;;
51194;SDS011;37259;49.972;19.850;2023-02-01T00:47:54;4.3;;;2.2;;
51194;SDS011;37259;49.972;19.850;2023-02-01T00:48:54;4.3;;;2.2;;
51194;SDS011;37259;49.972;19.850;2023-02-01T00:49:54;4.3;;;2.2;;
51194;SDS011;37259;49.972;19.850;2023-02-01T00:50:54;4.3;;;2.2;;
51194;SDS011;37259;49.972;19.850;2023-02-01T00:51:54;4.3;;;2.2;;
51194;SDS011;37259;49.972;19.850;2023-02-01T00:52:54;4.3;;;2.2;;
51194;SDS011;37259;49.972;19.850;2023-02-01T00:53:54;4.3;;;2.2;;
51194;SDS011;37259;49.972;19.850;2023-02-01T00:54:54;4.3;;;2.2;;
51194;SDS011;37259;49.972;19.850;2023-02-01T00:55:54;4.3;;;2.2;;
51194;SDS011;37259;49.972;19.850;2023-02-01T00:56:54;4.3;;;2.2;;
51194;SDS011;37259;49.972;19.850;2023-02-01T00:57:54;4.3;;;2.2;;
51194;SDS011;37259;49.972;19.850;2023-02-01T00:58:54;4.3;;;2.2;;
51194;SDS011;37259;49.972;19.850;2023-02-01T00:59:54;4.3;;;2.2;;
51194;SDS011;37259;49.972;19.850;2023-02-01T01:01:02;4.3;;;2.2;;
51194;SDS011;37259;49.972;19.850;2023-02-01T01:01:54;4.3;;;2.2;;
51194;SDS011;37259;49.972;19.850;2023-02-01T01:02:54;4.3;;;2.2;;
51194;SDS011;37259;49.972;19.850;2023-02-01T01:03:55;4.3;;;2.2;;
51194;SDS011;37259;49.972;19.850;2023-02-01T01:04:54;4.3;;;2.2;;
51194;SDS011;37259;49.972;19.850;2023-02-01T01:05:56;4.3;;;2.2;;
51194;SDS011;37259;49.972;19.850;2023-02-01T01:06:54;4.3;;;2.2;;
51194;SDS011;37259;49.972;19.850;2023-02-01T01:07:54;4.3;;;2.2;;
51194;SDS011;37259;49.972;19.850;2023-02-01T01:08:54;4.3;;;2.2;;
51194;SDS011;37259;49.972;19.850;2023-02-01T01:09:54;4.3;;;2.2;;
51194;SDS011;37259;49.972;19.850;2023-02-01T01:10:54;4.3;;;2.2;;
51194;SDS011;37259;49.972;19.850;2023-02-01T01:11:54;4.3;;;2.2;;
51194;SDS011;37259;49.972;19.850;2023-02-01T01:12:54;4.3;;;2.2;;
51194;SDS011;37259;49.972;19.850;2023-02-01T01:13:54;4.3;;;2.2;;
51194;SDS011;37259;49.972;19.850;2023-02-01T01:14:54;4.3;;;2.2;;
51194;SDS011;37259;49.972;19.850;2023-02-01T01:15:54;4.7;;;2.6;;
51194;SDS011;37259;49.972;19.850;2023-02-01T01:16:54;4.7;;;2.6;;
51194;SDS011;37259;49.972;19.850;2023-02-01T01:17:54;4.7;;;2.6;;
51194;SDS011;37259;49.972;19.850;2023-02-01T01:18:54;4.7;;;2.6;;
51194;SDS011;37259;49.972;19.850;2023-02-01T01:19:54;4.7;;;2.6;;
51194;SDS011;37259;49.972;19.850;2023-02-01T01:20:54;4.7;;;2.6;;
51194;SDS011;37259;49.972;19.850;2023-02-01T01:21:54;4.7;;;2.6;;
51194;SDS011;37259;49.972;19.850;2023-02-01T01:22:54;4.7;;;2.6;;
51194;SDS011;37259;49.972;19.850;2023-02-01T01:23:54;4.7;;;2.6;;
51194;SDS011;37259;49.972;19.850;2023-02-01T01:24:54;4.7;;;2.6;;
51194;SDS011;37259;49.972;19.850;2023-02-01T01:25:54;4.7;;;2.6;;
51194;SDS011;37259;49.972;19.850;2023-02-01T01:26:54;4.7;;;2.6;;
51194;SDS011;37259;49.972;19.850;2023-02-01T01:27:54;4.7;;;2.6;;
51194;SDS011;37259;49.972;19.850;2023-02-01T01:28:55;4.7;;;2.6;;
51194;SDS011;37259;49.972;19.850;2023-02-01T01:29:54;4.7;;;2.6;;
51194;SDS011;37259;49.972;19.850;2023-02-01T01:30:54;4.7;;;2.6;;
51194;SDS011;37259;49.972;19.850;2023-02-01T01:31:54;4.7;;;2.6;;
51194;SDS011;37259;49.972;19.850;2023-02-01T01:32:54;4.7;;;2.6;;
51194;SDS011;37259;49.972;19.850;2023-02-01T01:33:55;4.7;;;2.6;;
51194;SDS011;37259;49.972;19.850;2023-02-01T01:34:54;4.7;;;2.6;;
51194;SDS011;37259;49.972;19.850;2023-02-01T01:35:54;4.7;;;2.6;;
51194;SDS011;37259;49.972;19.850;2023-02-01T01:36:54;4.7;;;2.6;;
51194;SDS011;37259;49.972;19.850;2023-02-01T01:37:54;4.7;;;2.6;;
51194;SDS011;37259;49.972;19.850;2023-02-01T01:38:54;4.7;;;2.6;;
51194;SDS011;37259;49.972;19.850;2023-02-01T01:39:54;4.7;;;2.6;;
51194;SDS011;37259;49.972;19.850;2023-02-01T01:40:54;4.7;;;2.6;;
51194;SDS011;37259;49.972;19.850;2023-02-01T01:41:54;4.7;;;2.6;;
51194;SDS011;37259;49.972;19.850;2023-02-01T01:42:54;4.7;;;2.6;;
51194;SDS011;37259;49.972;19.850;2023-02-01T01:43:54;4.7;;;2.6;;
51194;SDS011;37259;49.972;19.850;2023-02-01T01:44:56;4.7;;;2.6;;
51194;SDS011;37259;49.972;19.850;2023-02-01T01:45:54;5;;;2.6;;
51194;SDS011;37259;49.972;19.850;2023-02-01T01:46:54;5;;;2.6;;
51194;SDS011;37259;49.972;19.850;2023-02-01T01:47:55;5;;;2.6;;
51194;SDS011;37259;49.972;19.850;2023-02-01T01:48:56;5;;;2.6;;
51194;SDS011;37259;49.972;19.850;2023-02-01T01:49:54;5;;;2.6;;
51194;SDS011;37259;49.972;19.850;2023-02-01T01:50:54;5;;;2.6;;
51194;SDS011;37259;49.972;19.850;2023-02-01T01:51:55;5;;;2.6;;
51194;SDS011;37259;49.972;19.850;2023-02-01T01:52:54;5;;;2.6;;
51194;SDS011;37259;49.972;19.850;2023-02-01T01:53:56;5;;;2.6;;
51194;SDS011;37259;49.972;19.850;2023-02-01T01:54:54;5;;;2.6;;
51194;SDS011;37259;49.972;19.850;2023-02-01T01:55:54;5;;;2.6;;
51194;SDS011;37259;49.972;19.850;2023-02-01T01:56:55;5;;;2.6;;
51194;SDS011;37259;49.972;19.850;2023-02-01T01:57:55;5;;;2.6;;
51194;SDS011;37259;49.972;19.850;2023-02-01T01:58:54;5;;;2.6;;
51194;SDS011;37259;49.972;19.850;2023-02-01T01:59:55;5;;;2.6;;
51194;SDS011;37259;49.972;19.850;2023-02-01T02:00:54;5;;;2.6;;
51194;SDS011;37259;49.972;19.850;2023-02-01T02:01:54;5;;;2.6;;
51194;SDS011;37259;49.972;19.850;2023-02-01T02:02:54;5;;;2.6;;
51194;SDS011;37259;49.972;19.850;2023-02-01T02:03:54;5;;;2.6;;
51194;SDS011;37259;49.972;19.850;2023-02-01T02:04:54;5;;;2.6;;
51194;SDS011;37259;49.972;19.850;2023-02-01T02:05:54;5;;;2.6;;
51194;SDS011;37259;49.972;19.850;2023-02-01T02:06:54;5;;;2.6;;
51194;SDS011;37259;49.972;19.850;2023-02-01T02:07:54;5;;;2.6;;
51194;SDS011;37259;49.972;19.850;2023-02-01T02:08:54;5;;;2.6;;
51194;SDS011;37259;49.972;19.850;2023-02-01T02:09:54;5;;;2.6;;
51194;SDS011;37259;49.972;19.850;2023-02-01T02:10:54;5;;;2.6;;
51194;SDS011;37259;49.972;19.850;2023-02-01T02:11:54;5;;;2.6;;
51194;SDS011;37259;49.972;19.850;2023-02-01T02:12:54;5;;;2.6;;
51194;SDS011;37259;49.972;19.850;2023-02-01T02:13:55;5;;;2.6;;
51194;SDS011;37259;49.972;19.850;2023-02-01T02:14:54;5.4;;;3;;
51194;SDS011;37259;49.972;19.850;2023-02-01T02:15:58;5.4;;;3;;
51194;SDS011;37259;49.972;19.850;2023-02-01T02:16:59;5.4;;;3;;
51194;SDS011;37259;49.972;19.850;2023-02-01T02:17:55;5.4;;;3;;
51194;SDS011;37259;49.972;19.850;2023-02-01T02:18:57;5.4;;;3;;
51194;SDS011;37259;49.972;19.850;2023-02-01T02:20:05;5.4;;;3;;
51194;SDS011;37259;49.972;19.850;2023-02-01T02:21:01;5.4;;;3;;
51194;SDS011;37259;49.972;19.850;2023-02-01T02:21:56;5.4;;;3;;
51194;SDS011;37259;49.972;19.850;2023-02-01T02:22:59;5.4;;;3;;
51194;SDS011;37259;49.972;19.850;2023-02-01T02:24:15;5.4;;;3;;
51194;SDS011;37259;49.972;19.850;2023-02-01T02:24:59;5.4;;;3;;
51194;SDS011;37259;49.972;19.850;2023-02-01T02:25:59;5.4;;;3;;
51194;SDS011;37259;49.972;19.850;2023-02-01T02:27:03;5.4;;;3;;
51194;SDS011;37259;49.972;19.850;2023-02-01T02:27:56;5.4;;;3;;
51194;SDS011;37259;49.972;19.850;2023-02-01T02:29:01;5.4;;;3;;
51194;SDS011;37259;49.972;19.850;2023-02-01T02:30:59;5.4;;;3;;
51194;SDS011;37259;49.972;19.850;2023-02-01T02:31:58;5.4;;;3;;
51194;SDS011;37259;49.972;19.850;2023-02-01T02:33:01;5.4;;;3;;
51194;SDS011;37259;49.972;19.850;2023-02-01T02:33:57;5.4;;;3;;
51194;SDS011;37259;49.972;19.850;2023-02-01T02:34:55;5.4;;;3;;
51194;SDS011;37259;49.972;19.850;2023-02-01T02:35:55;5.4;;;3;;
51194;SDS011;37259;49.972;19.850;2023-02-01T02:36:55;5.4;;;3;;
51194;SDS011;37259;49.972;19.850;2023-02-01T02:37:55;5.4;;;3;;
51194;SDS011;37259;49.972;19.850;2023-02-01T02:38:56;5.4;;;3;;
51194;SDS011;37259;49.972;19.850;2023-02-01T02:39:55;5.4;;;3;;
51194;SDS011;37259;49.972;19.850;2023-02-01T02:40:56;5.4;;;3;;
51194;SDS011;37259;49.972;19.850;2023-02-01T02:41:55;5.4;;;3;;
51194;SDS011;37259;49.972;19.850;2023-02-01T02:42:56;5.4;;;3;;
51194;SDS011;37259;49.972;19.850;2023-02-01T02:43:55;5.4;;;3;;
51194;SDS011;37259;49.972;19.850;2023-02-01T02:44:54;3.4;;;1.6;;
51194;SDS011;37259;49.972;19.850;2023-02-01T02:45:55;3.4;;;1.6;;
51194;SDS011;37259;49.972;19.850;2023-02-01T02:46:54;3.4;;;1.6;;
51194;SDS011;37259;49.972;19.850;2023-02-01T02:47:54;3.4;;;1.6;;
51194;SDS011;37259;49.972;19.850;2023-02-01T02:48:54;3.4;;;1.6;;
51194;SDS011;37259;49.972;19.850;2023-02-01T02:49:55;3.4;;;1.6;;
51194;SDS011;37259;49.972;19.850;2023-02-01T02:50:55;3.4;;;1.6;;
51194;SDS011;37259;49.972;19.850;2023-02-01T02:51:55;3.4;;;1.6;;
51194;SDS011;37259;49.972;19.850;2023-02-01T02:52:56;3.4;;;1.6;;
51194;SDS011;37259;49.972;19.850;2023-02-01T02:53:56;3.4;;;1.6;;
51194;SDS011;37259;49.972;19.850;2023-02-01T02:54:54;3.4;;;1.6;;
51194;SDS011;37259;49.972;19.850;2023-02-01T02:55:54;3.4;;;1.6;;
51194;SDS011;37259;49.972;19.850;2023-02-01T02:56:55;3.4;;;1.6;;
51194;SDS011;37259;49.972;19.850;2023-02-01T02:57:54;3.4;;;1.6;;
51194;SDS011;37259;49.972;19.850;2023-02-01T02:58:54;3.4;;;1.6;;
51194;SDS011;37259;49.972;19.850;2023-02-01T02:59:54;3.4;;;1.6;;
51194;SDS011;37259;49.972;19.850;2023-02-01T03:00:54;3.4;;;1.6;;
51194;SDS011;37259;49.972;19.850;2023-02-01T03:01:54;3.4;;;1.6;;
51194;SDS011;37259;49.972;19.850;2023-02-01T03:02:54;3.4;;;1.6;;
51194;SDS011;37259;49.972;19.850;2023-02-01T03:03:54;3.4;;;1.6;;
51194;SDS011;37259;49.972;19.850;2023-02-01T03:04:54;3.4;;;1.6;;
51194;SDS011;37259;49.972;19.850;2023-02-01T03:05:54;3.4;;;1.6;;
51194;SDS011;37259;49.972;19.850;2023-02-01T03:06:54;3.4;;;1.6;;
51194;SDS011;37259;49.972;19.850;2023-02-01T03:07:57;3.4;;;1.6;;
51194;SDS011;37259;49.972;19.850;2023-02-01T03:08:54;3.4;;;1.6;;
51194;SDS011;37259;49.972;19.850;2023-02-01T03:09:54;3.4;;;1.6;;
51194;SDS011;37259;49.972;19.850;2023-02-01T03:10:55;3.4;;;1.6;;
51194;SDS011;37259;49.972;19.850;2023-02-01T03:11:56;3.4;;;1.6;;
51194;SDS011;37259;49.972;19.850;2023-02-01T03:12:54;3.4;;;1.6;;
51194;SDS011;37259;49.972;19.850;2023-02-01T03:13:55;3.4;;;1.6;;
51194;SDS011;37259;49.972;19.850;2023-02-01T03:14:55;3.6;;;1.4;;
51194;SDS011;37259;49.972;19.850;2023-02-01T03:15:56;3.6;;;1.4;;
51194;SDS011;37259;49.972;19.850;2023-02-01T03:16:54;3.6;;;1.4;;
51194;SDS011;37259;49.972;19.850;2023-02-01T03:17:54;3.6;;;1.4;;
51194;SDS011;37259;49.972;19.850;2023-02-01T03:18:55;3.6;;;1.4;;
51194;SDS011;37259;49.972;19.850;2023-02-01T03:19:54;3.6;;;1.4;;
51194;SDS011;37259;49.972;19.850;2023-02-01T03:20:54;3.6;;;1.4;;
51194;SDS011;37259;49.972;19.850;2023-02-01T03:21:55;3.6;;;1.4;;
51194;SDS011;37259;49.972;19.850;2023-02-01T03:22:54;3.6;;;1.4;;
51194;SDS011;37259;49.972;19.850;2023-02-01T03:23:55;3.6;;;1.4;;
51194;SDS011;37259;49.972;19.850;2023-02-01T03:24:54;3.6;;;1.4;;
51194;SDS011;37259;49.972;19.850;2023-02-01T03:25:54;3.6;;;1.4;;
51194;SDS011;37259;49.972;19.850;2023-02-01T03:26:54;3.6;;;1.4;;
51194;SDS011;37259;49.972;19.850;2023-02-01T03:27:54;3.6;;;1.4;;
51194;SDS011;37259;49.972;19.850;2023-02-01T03:28:54;3.6;;;1.4;;
51194;SDS011;37259;49.972;19.850;2023-02-01T03:29:54;3.6;;;1.4;;
51194;SDS011;37259;49.972;19.850;2023-02-01T03:30:54;3.6;;;1.4;;
51194;SDS011;37259;49.972;19.850;2023-02-01T03:31:54;3.6;;;1.4;;
51194;SDS011;37259;49.972;19.850;2023-02-01T03:32:55;3.6;;;1.4;;
51194;SDS011;37259;49.972;19.850;2023-02-01T03:33:54;3.6;;;1.4;;
51194;SDS011;37259;49.972;19.850;2023-02-01T03:34:54;3.6;;;1.4;;
51194;SDS011;37259;49.972;19.850;2023-02-01T03:35:57;3.6;;;1.4;;
51194;SDS011;37259;49.972;19.850;2023-02-01T03:36:55;3.6;;;1.4;;
51194;SDS011;37259;49.972;19.850;2023-02-01T03:37:55;3.6;;;1.4;;
51194;SDS011;37259;49.972;19.850;2023-02-01T03:38:55;3.6;;;1.4;;
51194;SDS011;37259;49.972;19.850;2023-02-01T03:39:56;3.6;;;1.4;;
51194;SDS011;37259;49.972;19.850;2023-02-01T03:40:56;3.6;;;1.4;;
51194;SDS011;37259;49.972;19.850;2023-02-01T03:41:55;3.6;;;1.4;;
51194;SDS011;37259;49.972;19.850;2023-02-01T03:42:54;3.6;;;1.4;;
51194;SDS011;37259;49.972;19.850;2023-02-01T03:43:54;3.6;;;1.4;;
51194;SDS011;37259;49.972;19.850;2023-02-01T03:44:54;6;;;2.4;;
51194;SDS011;37259;49.972;19.850;2023-02-01T03:45:56;6;;;2.4;;
51194;SDS011;37259;49.972;19.850;2023-02-01T03:46:55;6;;;2.4;;
51194;SDS011;37259;49.972;19.850;2023-02-01T03:47:55;6;;;2.4;;
51194;SDS011;37259;49.972;19.850;2023-02-01T03:48:54;6;;;2.4;;
51194;SDS011;37259;49.972;19.850;2023-02-01T03:49:55;6;;;2.4;;
51194;SDS011;37259;49.972;19.850;2023-02-01T03:50:55;6;;;2.4;;
51194;SDS011;37259;49.972;19.850;2023-02-01T03:51:54;6;;;2.4;;
51194;SDS011;37259;49.972;19.850;2023-02-01T03:52:54;6;;;2.4;;
51194;SDS011;37259;49.972;19.850;2023-02-01T03:53:54;6;;;2.4;;
51194;SDS011;37259;49.972;19.850;2023-02-01T03:54:54;6;;;2.4;;
51194;SDS011;37259;49.972;19.850;2023-02-01T03:55:54;6;;;2.4;;
51194;SDS011;37259;49.972;19.850;2023-02-01T03:56:55;6;;;2.4;;
51194;SDS011;37259;49.972;19.850;2023-02-01T03:57:55;6;;;2.4;;
51194;SDS011;37259;49.972;19.850;2023-02-01T03:58:54;6;;;2.4;;
51194;SDS011;37259;49.972;19.850;2023-02-01T03:59:54;6;;;2.4;;
51194;SDS011;37259;49.972;19.850;2023-02-01T04:00:55;6;;;2.4;;
51194;SDS011;37259;49.972;19.850;2023-02-01T04:01:54;6;;;2.4;;
51194;SDS011;37259;49.972;19.850;2023-02-01T04:02:54;6;;;2.4;;
51194;SDS011;37259;49.972;19.850;2023-02-01T04:03:54;6;;;2.4;;
51194;SDS011;37259;49.972;19.850;2023-02-01T04:04:54;6;;;2.4;;
51194;SDS011;37259;49.972;19.850;2023-02-01T04:05:54;6;;;2.4;;
51194;SDS011;37259;49.972;19.850;2023-02-01T04:06:54;6;;;2.4;;
51194;SDS011;37259;49.972;19.850;2023-02-01T04:07:54;6;;;2.4;;
51194;SDS011;37259;49.972;19.850;2023-02-01T04:08:54;6;;;2.4;;
51194;SDS011;37259;49.972;19.850;2023-02-01T04:09:54;6;;;2.4;;
51194;SDS011;37259;49.972;19.850;2023-02-01T04:10:54;6;;;2.4;;
51194;SDS011;37259;49.972;19.850;2023-02-01T04:11:54;6;;;2.4;;
51194;SDS011;37259;49.972;19.850;2023-02-01T04:12:54;6;;;2.4;;
51194;SDS011;37259;49.972;19.850;2023-02-01T04:13:54;6;;;2.4;;
51194;SDS011;37259;49.972;19.850;2023-02-01T04:14:54;4.8;;;1.6;;
51194;SDS011;37259;49.972;19.850;2023-02-01T04:15:54;4.8;;;1.6;;
51194;SDS011;37259;49.972;19.850;2023-02-01T04:16:54;4.8;;;1.6;;
51194;SDS011;37259;49.972;19.850;2023-02-01T04:17:54;4.8;;;1.6;;
51194;SDS011;37259;49.972;19.850;2023-02-01T04:18:54;4.8;;;1.6;;
51194;SDS011;37259;49.972;19.850;2023-02-01T04:19:54;4.8;;;1.6;;
51194;SDS011;37259;49.972;19.850;2023-02-01T04:20:54;4.8;;;1.6;;
51194;SDS011;37259;49.972;19.850;2023-02-01T04:21:54;4.8;;;1.6;;
51194;SDS011;37259;49.972;19.850;2023-02-01T04:22:54;4.8;;;1.6;;
51194;SDS011;37259;49.972;19.850;2023-02-01T04:23:54;4.8;;;1.6;;
51194;SDS011;37259;49.972;19.850;2023-02-01T04:24:54;4.8;;;1.6;;
51194;SDS011;37259;49.972;19.850;2023-02-01T04:25:55;4.8;;;1.6;;
51194;SDS011;37259;49.972;19.850;2023-02-01T04:26:54;4.8;;;1.6;;
51194;SDS011;37259;49.972;19.850;2023-02-01T04:27:54;4.8;;;1.6;;
51194;SDS011;37259;49.972;19.850;2023-02-01T04:28:54;4.8;;;1.6;;
51194;SDS011;37259;49.972;19.850;2023-02-01T04:29:54;4.8;;;1.6;;
51194;SDS011;37259;49.972;19.850;2023-02-01T04:30:54;4.8;;;1.6;;
51194;SDS011;37259;49.972;19.850;2023-02-01T04:31:54;4.8;;;1.6;;
51194;SDS011;37259;49.972;19.850;2023-02-01T04:32:54;4.8;;;1.6;;
51194;SDS011;37259;49.972;19.850;2023-02-01T04:33:55;4.8;;;1.6;;
51194;SDS011;37259;49.972;19.850;2023-02-01T04:34:54;4.8;;;1.6;;
51194;SDS011;37259;49.972;19.850;2023-02-01T04:35:54;4.8;;;1.6;;
51194;SDS011;37259;49.972;19.850;2023-02-01T04:36:54;4.8;;;1.6;;
51194;SDS011;37259;49.972;19.850;2023-02-01T04:37:54;4.8;;;1.6;;
51194;SDS011;37259;49.972;19.850;2023-02-01T04:38:54;4.8;;;1.6;;
51194;SDS011;37259;49.972;19.850;2023-02-01T04:39:54;4.8;;;1.6;;
51194;SDS011;37259;49.972;19.850;2023-02-01T04:40:54;4.8;;;1.6;;
51194;SDS011;37259;49.972;19.850;2023-02-01T04:41:54;4.8;;;1.6;;
51194;SDS011;37259;49.972;19.850;2023-02-01T04:42:54;4.8;;;1.6;;
51194;SDS011;37259;49.972;19.850;2023-02-01T04:43:54;4.8;;;1.6;;
51194;SDS011;37259;49.972;19.850;2023-02-01T04:44:54;6.6;;;4.1;;
51194;SDS011;37259;49.972;19.850;2023-02-01T04:45:54;6.6;;;4.1;;
51194;SDS011;37259;49.972;19.850;2023-02-01T04:46:54;6.6;;;4.1;;
51194;SDS011;37259;49.972;19.850;2023-02-01T04:47:54;6.6;;;4.1;;
51194;SDS011;37259;49.972;19.850;2023-02-01T04:48:54;6.6;;;4.1;;
51194;SDS011;37259;49.972;19.850;2023-02-01T04:49:54;6.6;;;4.1;;
51194;SDS011;37259;49.972;19.850;2023-02-01T04:50:54;6.6;;;4.1;;
51194;SDS011;37259;49.972;19.850;2023-02-01T04:51:54;6.6;;;4.1;;
51194;SDS011;37259;49.972;19.850;2023-02-01T04:52:54;6.6;;;4.1;;
51194;SDS011;37259;49.972;19.850;2023-02-01T04:53:54;6.6;;;4.1;;
51194;SDS011;37259;49.972;19.850;2023-02-01T04:54:54;6.6;;;4.1;;
51194;SDS011;37259;49.972;19.850;2023-02-01T04:55:54;6.6;;;4.1;;
51194;SDS011;37259;49.972;19.850;2023-02-01T04:56:54;6.6;;;4.1;;
51194;SDS011;37259;49.972;19.850;2023-02-01T04:57:54;6.6;;;4.1;;
51194;SDS011;37259;49.972;19.850;2023-02-01T04:58:54;6.6;;;4.1;;
51194;SDS011;37259;49.972;19.850;2023-02-01T04:59:54;6.6;;;4.1;;
51194;SDS011;37259;49.972;19.850;2023-02-01T05:00:54;6.6;;;4.1;;
51194;SDS011;37259;49.972;19.850;2023-02-01T05:01:54;6.6;;;4.1;;
51194;SDS011;37259;49.972;19.850;2023-02-01T05:02:54;6.6;;;4.1;;
51194;SDS011;37259;49.972;19.850;2023-02-01T05:03:54;6.6;;;4.1;;
51194;SDS011;37259;49.972;19.850;2023-02-01T05:04:54;6.6;;;4.1;;
51194;SDS011;37259;49.972;19.850;2023-02-01T05:05:54;6.6;;;4.1;;
51194;SDS011;37259;49.972;19.850;2023-02-01T05:06:54;6.6;;;4.1;;
51194;SDS011;37259;49.972;19.850;2023-02-01T05:07:54;6.6;;;4.1;;
51194;SDS011;37259;49.972;19.850;2023-02-01T05:08:54;6.6;;;4.1;;
51194;SDS011;37259;49.972;19.850;2023-02-01T05:09:54;6.6;;;4.1;;
51194;SDS011;37259;49.972;19.850;2023-02-01T05:10:54;6.6;;;4.1;;
51194;SDS011;37259;49.972;19.850;2023-02-01T05:11:54;6.6;;;4.1;;
51194;SDS011;37259;49.972;19.850;2023-02-01T05:12:54;6.6;;;4.1;;
51194;SDS011;37259;49.972;19.850;2023-02-01T05:13:54;6.6;;;4.1;;
51194;SDS011;37259;49.972;19.850;2023-02-01T05:14:54;13.6;;;6.4;;
51194;SDS011;37259;49.972;19.850;2023-02-01T05:15:54;13.6;;;6.4;;
51194;SDS011;37259;49.972;19.850;2023-02-01T05:16:54;13.6;;;6.4;;
51194;SDS011;37259;49.972;19.850;2023-02-01T05:17:54;13.6;;;6.4;;
51194;SDS011;37259;49.972;19.850;2023-02-01T05:18:54;13.6;;;6.4;;
51194;SDS011;37259;49.972;19.850;2023-02-01T05:19:54;13.6;;;6.4;;
51194;SDS011;37259;49.972;19.850;2023-02-01T05:20:54;13.6;;;6.4;;
51194;SDS011;37259;49.972;19.850;2023-02-01T05:21:54;13.6;;;6.4;;
51194;SDS011;37259;49.972;19.850;2023-02-01T05:22:54;13.6;;;6.4;;
51194;SDS011;37259;49.972;19.850;2023-02-01T05:23:54;13.6;;;6.4;;
51194;SDS011;37259;49.972;19.850;2023-02-01T05:24:54;13.6;;;6.4;;
51194;SDS011;37259;49.972;19.850;2023-02-01T05:25:57;13.6;;;6.4;;
51194;SDS011;37259;49.972;19.850;2023-02-01T05:26:54;13.6;;;6.4;;
51194;SDS011;37259;49.972;19.850;2023-02-01T05:27:54;13.6;;;6.4;;
51194;SDS011;37259;49.972;19.850;2023-02-01T05:28:54;13.6;;;6.4;;
51194;SDS011;37259;49.972;19.850;2023-02-01T05:29:54;13.6;;;6.4;;
51194;SDS011;37259;49.972;19.850;2023-02-01T05:30:54;13.6;;;6.4;;
51194;SDS011;37259;49.972;19.850;2023-02-01T05:31:54;13.6;;;6.4;;
51194;SDS011;37259;49.972;19.850;2023-02-01T05:32:54;13.6;;;6.4;;
51194;SDS011;37259;49.972;19.850;2023-02-01T05:33:54;13.6;;;6.4;;
51194;SDS011;37259;49.972;19.850;2023-02-01T05:34:54;13.6;;;6.4;;
51194;SDS011;37259;49.972;19.850;2023-02-01T05:35:54;13.6;;;6.4;;
51194;SDS011;37259;49.972;19.850;2023-02-01T05:36:54;13.6;;;6.4;;
51194;SDS011;37259;49.972;19.850;2023-02-01T05:37:54;13.6;;;6.4;;
51194;SDS011;37259;49.972;19.850;2023-02-01T05:38:54;13.6;;;6.4;;
51194;SDS011;37259;49.972;19.850;2023-02-01T05:39:54;13.6;;;6.4;;
51194;SDS011;37259;49.972;19.850;2023-02-01T05:40:54;13.6;;;6.4;;
51194;SDS011;37259;49.972;19.850;2023-02-01T05:41:54;13.6;;;6.4;;
51194;SDS011;37259;49.972;19.850;2023-02-01T05:42:54;13.6;;;6.4;;
51194;SDS011;37259;49.972;19.850;2023-02-01T05:43:54;13.6;;;6.4;;
51194;SDS011;37259;49.972;19.850;2023-02-01T05:44:54;7.8;;;4.1;;
51194;SDS011;37259;49.972;19.850;2023-02-01T05:45:54;7.8;;;4.1;;
51194;SDS011;37259;49.972;19.850;2023-02-01T05:46:54;7.8;;;4.1;;
51194;SDS011;37259;49.972;19.850;2023-02-01T05:47:54;7.8;;;4.1;;
51194;SDS011;37259;49.972;19.850;2023-02-01T05:48:54;7.8;;;4.1;;
51194;SDS011;37259;49.972;19.850;2023-02-01T05:49:54;7.8;;;4.1;;
51194;SDS011;37259;49.972;19.850;2023-02-01T05:50:54;7.8;;;4.1;;
51194;SDS011;37259;49.972;19.850;2023-02-01T05:51:54;7.8;;;4.1;;
51194;SDS011;37259;49.972;19.850;2023-02-01T05:52:54;7.8;;;4.1;;
51194;SDS011;37259;49.972;19.850;2023-02-01T05:53:54;7.8;;;4.1;;
51194;SDS011;37259;49.972;19.850;2023-02-01T05:54:54;7.8;;;4.1;;
51194;SDS011;37259;49.972;19.850;2023-02-01T05:55:54;7.8;;;4.1;;
51194;SDS011;37259;49.972;19.850;2023-02-01T05:56:54;7.8;;;4.1;;
51194;SDS011;37259;49.972;19.850;2023-02-01T05:57:54;7.8;;;4.1;;
51194;SDS011;37259;49.972;19.850;2023-02-01T05:58:54;7.8;;;4.1;;
51194;SDS011;37259;49.972;19.850;2023-02-01T05:59:54;7.8;;;4.1;;
51194;SDS011;37259;49.972;19.850;2023-02-01T06:00:54;7.8;;;4.1;;
51194;SDS011;37259;49.972;19.850;2023-02-01T06:01:54;7.8;;;4.1;;
51194;SDS011;37259;49.972;19.850;2023-02-01T06:02:54;7.8;;;4.1;;
51194;SDS011;37259;49.972;19.850;2023-02-01T06:03:54;7.8;;;4.1;;
51194;SDS011;37259;49.972;19.850;2023-02-01T06:04:54;7.8;;;4.1;;
51194;SDS011;37259;49.972;19.850;2023-02-01T06:05:54;7.8;;;4.1;;
51194;SDS011;37259;49.972;19.850;2023-02-01T06:06:54;7.8;;;4.1;;
51194;SDS011;37259;49.972;19.850;2023-02-01T06:07:54;7.8;;;4.1;;
51194;SDS011;37259;49.972;19.850;2023-02-01T06:08:54;7.8;;;4.1;;
51194;SDS011;37259;49.972;19.850;2023-02-01T06:09:54;7.8;;;4.1;;
51194;SDS011;37259;49.972;19.850;2023-02-01T06:10:57;7.8;;;4.1;;